createdAt,value
2017-08-19T00:00:26.482Z,0.80
2017-08-19T00:02:54.061Z,0.83
2017-08-19T00:05:21.582Z,0.83
2017-08-19T00:07:49.121Z,0.80
2017-08-19T00:10:16.681Z,0.90
2017-08-19T00:12:44.217Z,0.73
2017-08-19T00:15:12.525Z,0.80
2017-08-19T00:17:40.075Z,0.77
2017-08-19T00:20:07.616Z,0.80
2017-08-19T00:22:35.917Z,0.88
2017-08-19T00:25:03.475Z,1.00
2017-08-19T00:27:31.011Z,0.70
2017-08-19T00:29:59.326Z,0.87
2017-08-19T00:32:26.873Z,0.87
2017-08-19T00:34:54.432Z,0.80
2017-08-19T00:37:21.977Z,0.95
2017-08-19T00:39:50.297Z,0.90
2017-08-19T00:42:17.839Z,0.87
2017-08-19T00:44:45.376Z,0.93
2017-08-19T00:47:12.914Z,1.00
2017-08-19T00:49:40.462Z,0.90
2017-08-19T00:52:08.005Z,0.88
2017-08-19T00:54:35.553Z,0.80
2017-08-19T00:57:03.083Z,0.80
2017-08-19T00:59:30.644Z,0.83
2017-08-19T01:01:58.177Z,0.90
2017-08-19T01:04:26.473Z,0.80
2017-08-19T01:06:54.017Z,0.90
2017-08-19T01:09:22.325Z,0.80
2017-08-19T01:11:50.400Z,0.90
2017-08-19T01:14:17.933Z,0.80
2017-08-19T01:16:46.229Z,0.80
2017-08-19T01:19:13.777Z,0.90
2017-08-19T01:21:41.318Z,1.00
2017-08-19T01:24:09.645Z,0.83
2017-08-19T01:26:49.088Z,0.90
2017-08-19T01:29:16.644Z,0.90
2017-08-19T01:31:44.182Z,0.90
2017-08-19T01:34:11.752Z,0.80
2017-08-19T01:36:39.298Z,0.90
2017-08-19T01:39:06.840Z,0.80
2017-08-19T01:41:35.157Z,0.98
2017-08-19T01:44:02.689Z,1.00
2017-08-19T01:46:31.010Z,0.80
2017-08-19T01:48:58.561Z,0.88
2017-08-19T01:51:26.112Z,0.90
2017-08-19T01:53:53.669Z,0.90
2017-08-19T01:56:21.206Z,1.20
2017-08-19T01:58:48.765Z,1.20
2017-08-19T02:01:16.323Z,0.90
2017-08-19T02:03:43.845Z,0.90
2017-08-19T02:06:11.393Z,0.80
2017-08-19T02:08:38.962Z,0.87
2017-08-19T02:11:06.517Z,1.00
2017-08-19T02:13:34.055Z,1.15
2017-08-19T02:16:01.595Z,1.20
2017-08-19T02:18:29.152Z,1.12
2017-08-19T02:20:56.687Z,1.10
2017-08-19T02:23:25.118Z,1.10
2017-08-19T02:25:52.649Z,1.30
2017-08-19T02:28:20.218Z,1.10
2017-08-19T02:30:47.777Z,1.10
2017-08-19T02:33:15.318Z,1.08
2017-08-19T02:35:42.869Z,1.10
2017-08-19T02:38:10.410Z,1.30
2017-08-19T02:40:37.965Z,1.00
2017-08-19T02:43:05.513Z,1.37
2017-08-19T02:45:33.073Z,1.98
2017-08-19T02:48:00.641Z,1.50
2017-08-19T02:50:28.194Z,1.17
2017-08-19T02:52:55.745Z,1.40
2017-08-19T02:55:23.295Z,1.40
2017-08-19T02:57:50.849Z,1.40
2017-08-19T03:00:18.373Z,1.23
2017-08-19T03:02:45.944Z,1.30
2017-08-19T03:05:13.482Z,1.12
2017-08-19T03:07:41.782Z,1.10
2017-08-19T03:10:09.334Z,1.40
2017-08-19T03:12:36.885Z,1.30
2017-08-19T03:15:05.194Z,1.42
2017-08-19T03:17:32.740Z,1.33
2017-08-19T03:20:00.310Z,1.42
2017-08-19T03:22:27.888Z,1.60
2017-08-19T03:24:55.458Z,1.60
2017-08-19T03:27:23.027Z,1.40
2017-08-19T03:29:50.581Z,1.40
2017-08-19T03:32:18.133Z,1.70
2017-08-19T03:34:45.682Z,1.80
2017-08-19T03:37:13.245Z,1.30
2017-08-19T03:39:40.787Z,1.60
2017-08-19T03:42:08.325Z,1.95
2017-08-19T03:44:36.644Z,1.30
2017-08-19T03:47:04.188Z,1.30
2017-08-19T03:49:31.749Z,1.60
2017-08-19T03:51:59.309Z,1.58
2017-08-19T03:54:26.846Z,1.30
2017-08-19T03:56:54.411Z,1.40
2017-08-19T03:59:21.962Z,1.73
2017-08-19T04:01:50.256Z,1.50
2017-08-19T04:04:17.813Z,1.40
2017-08-19T04:06:45.358Z,1.92
2017-08-19T04:09:12.917Z,1.48
2017-08-19T04:11:41.246Z,1.50
2017-08-19T04:14:08.781Z,1.55
2017-08-19T04:16:36.344Z,1.70
2017-08-19T04:19:03.876Z,1.55
2017-08-19T04:21:32.202Z,1.70
2017-08-19T04:23:59.737Z,1.60
2017-08-19T04:26:27.269Z,1.73
2017-08-19T04:28:55.588Z,2.05
2017-08-19T04:31:23.126Z,1.65
2017-08-19T04:33:50.673Z,1.55
2017-08-19T04:36:18.209Z,1.75
2017-08-19T04:38:45.763Z,2.12
2017-08-19T04:41:13.285Z,1.83
2017-08-19T04:43:40.828Z,1.65
2017-08-19T04:46:08.377Z,1.70
2017-08-19T04:48:35.912Z,1.92
2017-08-19T04:51:04.274Z,2.25
2017-08-19T04:53:31.816Z,1.95
2017-08-19T04:55:59.341Z,1.80
2017-08-19T04:58:26.897Z,2.00
2017-08-19T05:00:54.495Z,1.40
2017-08-19T05:03:22.049Z,2.50
2017-08-19T05:05:49.587Z,1.40
2017-08-19T05:08:17.151Z,1.60
2017-08-19T05:10:44.687Z,2.10
2017-08-19T05:13:12.225Z,2.30
2017-08-19T05:15:40.548Z,1.70
2017-08-19T05:18:08.080Z,2.08
2017-08-19T05:20:36.406Z,2.33
2017-08-19T05:23:03.937Z,1.80
2017-08-19T05:25:31.469Z,2.60
2017-08-19T05:27:59.793Z,1.90
2017-08-19T05:30:27.353Z,2.20
2017-08-19T05:32:54.908Z,2.00
2017-08-19T05:35:22.449Z,1.90
2017-08-19T05:37:50.023Z,1.50
2017-08-19T05:40:17.576Z,1.75
2017-08-19T05:42:45.135Z,1.80
2017-08-19T05:45:12.662Z,1.80
2017-08-19T05:47:40.971Z,2.05
2017-08-19T05:50:08.525Z,1.60
2017-08-19T05:52:36.064Z,1.50
2017-08-19T05:55:04.382Z,1.98
2017-08-19T05:57:31.913Z,1.62
2017-08-19T05:59:59.497Z,1.92
2017-08-19T06:02:27.044Z,1.40
2017-08-19T06:04:54.601Z,1.30
2017-08-19T06:07:22.163Z,1.48
2017-08-19T06:09:49.705Z,1.50
2017-08-19T06:12:17.264Z,1.60
2017-08-19T06:14:44.811Z,1.42
2017-08-19T06:17:13.119Z,1.40
2017-08-19T06:19:40.692Z,1.80
2017-08-19T06:22:08.228Z,2.15
2017-08-19T06:24:35.763Z,1.27
2017-08-19T06:27:04.119Z,1.10
2017-08-19T06:29:31.658Z,1.40
2017-08-19T06:31:59.241Z,1.60
2017-08-19T06:34:26.793Z,1.40
2017-08-19T06:36:54.326Z,1.60
2017-08-19T06:39:21.875Z,1.27
2017-08-19T06:41:49.417Z,1.42
2017-08-19T06:44:17.726Z,1.35
2017-08-19T06:46:45.282Z,1.00
2017-08-19T06:49:12.830Z,1.75
2017-08-19T06:51:40.386Z,1.50
2017-08-19T06:54:07.939Z,1.47
2017-08-19T06:56:35.474Z,1.30
2017-08-19T06:59:03.016Z,1.20
2017-08-19T07:01:30.574Z,1.00
2017-08-19T07:03:58.121Z,1.10
2017-08-19T07:06:25.667Z,1.30
2017-08-19T07:08:53.194Z,1.10
2017-08-19T07:11:20.745Z,1.00
2017-08-19T07:13:49.049Z,1.20
2017-08-19T07:16:16.605Z,1.00
2017-08-19T07:18:44.173Z,1.10
2017-08-19T07:21:11.704Z,1.10
2017-08-19T07:23:40.021Z,1.00
2017-08-19T07:26:07.565Z,1.20
2017-08-19T07:28:35.108Z,1.13
2017-08-19T07:31:02.695Z,1.20
2017-08-19T07:33:30.233Z,1.40
2017-08-19T07:35:57.796Z,1.10
2017-08-19T07:38:25.341Z,1.33
2017-08-19T07:40:52.893Z,0.97
2017-08-19T07:43:21.202Z,1.30
2017-08-19T07:45:48.800Z,1.30
2017-08-19T07:48:16.354Z,1.20
2017-08-19T07:50:43.880Z,1.23
2017-08-19T07:53:11.405Z,1.40
2017-08-19T07:55:39.717Z,1.03
2017-08-19T07:58:07.253Z,1.03
2017-08-19T08:00:35.569Z,0.93
2017-08-19T08:03:03.121Z,0.97
2017-08-19T08:05:30.690Z,1.43
2017-08-19T08:07:58.220Z,1.20
2017-08-19T08:10:25.756Z,1.60
2017-08-19T08:12:53.318Z,1.20
2017-08-19T08:15:21.608Z,1.50
2017-08-19T08:17:49.937Z,1.03
2017-08-19T08:20:17.462Z,1.07
2017-08-19T08:22:45.009Z,1.03
2017-08-19T08:25:12.551Z,1.13
2017-08-19T08:27:40.845Z,1.20
2017-08-19T08:30:09.177Z,1.10
2017-08-19T08:32:36.716Z,1.20
2017-08-19T08:35:04.281Z,1.10
2017-08-19T08:37:31.805Z,1.10
2017-08-19T08:39:59.362Z,1.87
2017-08-19T08:42:26.916Z,1.03
2017-08-19T08:44:54.467Z,1.10
2017-08-19T08:47:22.787Z,0.80
2017-08-19T08:49:50.317Z,1.10
2017-08-19T08:52:17.841Z,0.93
2017-08-19T08:54:45.384Z,0.93
2017-08-19T08:57:12.908Z,0.87
2017-08-19T08:59:40.456Z,1.10
2017-08-19T09:02:07.999Z,1.10
2017-08-19T09:04:36.286Z,0.87
2017-08-19T09:07:03.835Z,1.10
2017-08-19T09:09:31.414Z,1.00
2017-08-19T09:11:58.948Z,1.20
2017-08-19T09:14:26.492Z,0.97
2017-08-19T09:16:54.042Z,1.17
2017-08-19T09:19:21.607Z,1.00
2017-08-19T09:21:49.248Z,0.90
2017-08-19T09:24:16.773Z,0.90
2017-08-19T09:26:44.333Z,0.97
2017-08-19T09:29:11.865Z,0.80
2017-08-19T09:31:39.433Z,1.00
2017-08-19T09:34:07.734Z,0.90
2017-08-19T09:36:35.273Z,1.10
2017-08-19T09:39:03.587Z,1.10
2017-08-19T09:41:31.125Z,1.00
2017-08-19T09:43:58.671Z,1.00
2017-08-19T09:46:26.966Z,0.97
2017-08-19T09:48:54.536Z,0.90
2017-08-19T09:51:22.070Z,0.90
2017-08-19T09:53:49.601Z,0.90
2017-08-19T09:56:17.159Z,1.30
2017-08-19T09:58:44.705Z,1.30
2017-08-19T10:01:12.266Z,1.07
2017-08-19T10:03:39.802Z,1.10
2017-08-19T10:06:08.195Z,1.00
2017-08-19T10:08:45.301Z,1.10
2017-08-19T10:11:22.586Z,0.93
2017-08-19T10:13:50.137Z,1.07
2017-08-19T10:16:17.676Z,1.40
2017-08-19T10:18:45.200Z,1.00
2017-08-19T10:21:12.751Z,1.20
2017-08-19T10:23:41.045Z,1.40
2017-08-19T10:26:08.627Z,1.23
2017-08-19T10:28:36.165Z,1.10
2017-08-19T10:31:03.721Z,0.80
2017-08-19T10:33:31.310Z,1.40
2017-08-19T10:35:58.873Z,1.10
2017-08-19T10:38:26.424Z,1.10
2017-08-19T10:40:53.945Z,1.17
2017-08-19T10:43:22.268Z,1.10
2017-08-19T10:45:49.826Z,1.03
2017-08-19T10:48:17.372Z,1.40
2017-08-19T10:50:44.893Z,1.10
2017-08-19T10:53:12.421Z,0.90
2017-08-19T10:55:39.985Z,1.40
2017-08-19T10:58:07.521Z,1.13
2017-08-19T11:00:35.087Z,1.20
2017-08-19T11:03:02.615Z,1.47
2017-08-19T11:05:30.152Z,1.37
2017-08-19T11:07:57.707Z,1.20
2017-08-19T11:10:25.267Z,1.37
2017-08-19T11:12:52.804Z,0.90
2017-08-19T11:15:20.351Z,1.17
2017-08-19T11:17:47.903Z,5.80
2017-08-19T11:20:15.441Z,1.93
2017-08-19T11:22:42.991Z,1.40
2017-08-19T11:25:10.529Z,1.23
2017-08-19T11:27:38.127Z,1.20
2017-08-19T11:30:05.661Z,1.30
2017-08-19T11:32:33.980Z,1.00
2017-08-19T11:35:01.519Z,1.20
2017-08-19T11:37:29.060Z,1.07
2017-08-19T11:39:57.351Z,1.00
2017-08-19T11:42:24.889Z,1.30
2017-08-19T11:44:53.206Z,1.10
2017-08-19T11:47:20.747Z,1.53
2017-08-19T11:49:48.298Z,2.53
2017-08-19T11:52:16.606Z,2.40
2017-08-19T11:54:44.171Z,1.20
2017-08-19T11:57:11.698Z,1.10
2017-08-19T11:59:39.993Z,1.50
2017-08-19T12:02:07.548Z,1.40
2017-08-19T12:04:35.069Z,1.40
2017-08-19T12:07:02.636Z,1.20
2017-08-19T12:09:30.944Z,1.27
2017-08-19T12:11:58.476Z,1.10
2017-08-19T12:14:26.784Z,1.17
2017-08-19T12:16:54.310Z,1.50
2017-08-19T12:19:22.641Z,1.20
2017-08-19T12:21:50.177Z,1.20
2017-08-19T12:24:17.702Z,1.40
2017-08-19T12:26:45.225Z,1.20
2017-08-19T12:29:12.772Z,1.20
2017-08-19T12:31:40.317Z,1.37
2017-08-19T12:34:07.865Z,1.30
2017-08-19T12:36:35.451Z,1.50
2017-08-19T12:39:02.998Z,1.30
2017-08-19T12:41:30.572Z,1.07
2017-08-19T12:43:58.708Z,1.67
2017-08-19T12:46:27.024Z,1.40
2017-08-19T12:48:54.552Z,1.30
2017-08-19T12:51:22.106Z,1.43
2017-08-19T12:53:50.403Z,1.30
2017-08-19T12:56:18.025Z,2.70
2017-08-19T12:58:45.569Z,1.50
2017-08-19T13:01:13.095Z,1.60
2017-08-19T13:03:40.664Z,1.83
2017-08-19T13:06:08.190Z,1.87
2017-08-19T13:08:35.739Z,1.40
2017-08-19T13:11:03.301Z,2.17
2017-08-19T13:13:31.621Z,1.60
2017-08-19T13:15:59.179Z,1.60
2017-08-19T13:18:26.708Z,1.40
2017-08-19T13:20:54.302Z,1.50
2017-08-19T13:23:21.828Z,1.60
2017-08-19T13:25:49.382Z,1.20
2017-08-19T13:28:16.913Z,1.40
2017-08-19T13:30:44.485Z,1.53
2017-08-19T13:33:12.798Z,1.37
2017-08-19T13:35:40.349Z,1.70
2017-08-19T13:38:07.906Z,1.53
2017-08-19T13:40:35.444Z,1.40
2017-08-19T13:43:03.757Z,1.33
2017-08-19T13:45:31.302Z,1.60
2017-08-19T13:47:58.827Z,1.70
2017-08-19T13:50:26.368Z,1.67
2017-08-19T13:52:53.938Z,1.40
2017-08-19T13:55:21.473Z,1.20
2017-08-19T13:57:49.015Z,1.40
2017-08-19T14:00:16.567Z,1.50
2017-08-19T14:02:44.117Z,1.57
2017-08-19T14:05:11.656Z,1.20
2017-08-19T14:07:39.981Z,1.40
2017-08-19T14:10:07.540Z,1.40
2017-08-19T14:12:35.075Z,1.10
2017-08-19T14:15:02.604Z,1.33
2017-08-19T14:17:30.927Z,1.20
2017-08-19T14:19:58.465Z,2.10
2017-08-19T14:22:26.790Z,1.50
2017-08-19T14:24:54.333Z,1.60
2017-08-19T14:27:21.864Z,1.50
2017-08-19T14:29:49.401Z,1.20
2017-08-19T14:32:16.926Z,1.20
2017-08-19T14:34:44.493Z,1.27
2017-08-19T14:37:12.034Z,1.30
2017-08-19T14:39:39.561Z,1.30
2017-08-19T14:42:07.121Z,1.23
2017-08-19T14:44:34.673Z,2.53
2017-08-19T14:47:02.986Z,1.30
2017-08-19T14:49:30.540Z,1.20
2017-08-19T14:51:58.077Z,1.30
2017-08-19T14:54:25.628Z,1.47
2017-08-19T14:56:53.921Z,1.67
2017-08-19T14:59:21.480Z,1.30
2017-08-19T15:01:49.028Z,1.20
2017-08-19T15:04:16.557Z,1.40
2017-08-19T15:06:44.124Z,1.50
2017-08-19T15:09:11.670Z,1.50
2017-08-19T15:11:39.228Z,1.20
2017-08-19T15:14:07.075Z,1.23
2017-08-19T15:16:34.627Z,1.20
2017-08-19T15:19:02.171Z,1.40
2017-08-19T15:21:29.733Z,1.33
2017-08-19T15:23:57.266Z,1.40
2017-08-19T15:26:25.577Z,1.40
2017-08-19T15:28:53.269Z,1.37
2017-08-19T15:31:20.820Z,1.10
2017-08-19T15:33:48.368Z,1.40
2017-08-19T15:36:16.209Z,1.50
2017-08-19T15:38:43.744Z,1.57
2017-08-19T15:41:12.059Z,1.40
2017-08-19T15:43:39.588Z,1.40
2017-08-19T15:46:07.903Z,1.30
2017-08-19T15:48:35.448Z,1.53
2017-08-19T15:51:02.972Z,1.67
2017-08-19T15:53:31.293Z,1.70
2017-08-19T15:55:58.853Z,1.73
2017-08-19T15:58:26.381Z,1.23
2017-08-19T16:00:54.701Z,1.20
2017-08-19T16:03:22.254Z,2.30
2017-08-19T16:05:49.800Z,2.00
2017-08-19T16:08:17.328Z,1.30
2017-08-19T16:10:45.039Z,1.30
2017-08-19T16:13:12.601Z,1.50
2017-08-19T16:15:40.130Z,1.50
2017-08-19T16:18:07.680Z,1.00
2017-08-19T16:20:35.976Z,1.40
2017-08-19T16:23:03.529Z,1.43
2017-08-19T16:25:31.064Z,1.13
2017-08-19T16:27:59.420Z,1.20
2017-08-19T16:30:26.946Z,1.10
2017-08-19T16:32:54.480Z,1.40
2017-08-19T16:35:22.039Z,1.83
2017-08-19T16:37:49.574Z,2.73
2017-08-19T16:40:17.133Z,2.27
2017-08-19T16:42:44.678Z,1.30
2017-08-19T16:45:12.233Z,1.20
2017-08-19T16:47:39.782Z,0.90
2017-08-19T16:50:07.313Z,1.20
2017-08-19T16:52:34.869Z,1.20
2017-08-19T16:55:02.429Z,1.20
2017-08-19T16:57:29.964Z,1.60
2017-08-19T16:59:58.293Z,1.47
2017-08-19T17:02:25.834Z,1.10
2017-08-19T17:04:53.408Z,1.37
2017-08-19T17:07:20.988Z,2.03
2017-08-19T17:09:48.528Z,1.30
2017-08-19T17:12:16.090Z,1.50
2017-08-19T17:14:43.648Z,1.40
2017-08-19T17:17:11.206Z,1.20
2017-08-19T17:19:39.205Z,1.13
2017-08-19T17:22:06.756Z,1.13
2017-08-19T17:24:34.293Z,1.00
2017-08-19T17:27:01.825Z,1.00
2017-08-19T17:29:29.417Z,1.20
2017-08-19T17:31:56.949Z,1.10
2017-08-19T17:34:24.502Z,1.00
2017-08-19T17:36:52.058Z,1.10
2017-08-19T17:39:20.353Z,1.40
2017-08-19T17:41:47.918Z,1.30
2017-08-19T17:44:15.455Z,1.10
2017-08-19T17:46:43.786Z,1.03
2017-08-19T17:49:11.333Z,0.97
2017-08-19T17:51:38.889Z,1.10
2017-08-19T17:54:06.468Z,1.07
2017-08-19T17:56:33.997Z,1.07
2017-08-19T17:59:01.561Z,1.23
2017-08-19T18:01:29.093Z,0.80
2017-08-19T18:03:56.649Z,1.10
2017-08-19T18:06:24.940Z,1.00
2017-08-19T18:08:52.469Z,0.93
2017-08-19T18:11:20.021Z,1.10
2017-08-19T18:13:47.565Z,1.07
2017-08-19T18:16:15.113Z,1.10
2017-08-19T18:18:42.674Z,1.03
2017-08-19T18:21:10.209Z,1.10
2017-08-19T18:23:37.778Z,1.20
2017-08-19T18:26:05.306Z,1.10
2017-08-19T18:28:33.624Z,1.20
2017-08-19T18:31:01.162Z,1.20
2017-08-19T18:33:28.705Z,1.20
2017-08-19T18:35:56.283Z,1.43
2017-08-19T18:38:23.809Z,0.90
2017-08-19T18:40:51.364Z,1.07
2017-08-19T18:43:18.909Z,1.00
2017-08-19T18:45:46.452Z,1.00
2017-08-19T18:48:14.002Z,1.00
2017-08-19T18:50:41.557Z,1.00
2017-08-19T18:53:09.122Z,1.00
2017-08-19T18:55:36.660Z,1.20
2017-08-19T18:58:04.339Z,1.10
2017-08-19T19:00:31.869Z,1.00
2017-08-19T19:02:59.469Z,1.30
2017-08-19T19:05:27.020Z,0.90
2017-08-19T19:07:54.551Z,1.05
2017-08-19T19:10:22.119Z,1.00
2017-08-19T19:12:49.654Z,1.10
2017-08-19T19:15:17.997Z,1.10
2017-08-19T19:17:45.537Z,1.23
2017-08-19T19:20:13.105Z,1.00
2017-08-19T19:22:40.638Z,0.97
2017-08-19T19:25:08.169Z,1.20
2017-08-19T19:27:36.493Z,1.30
2017-08-19T19:30:04.158Z,1.30
2017-08-19T19:32:31.712Z,1.30
2017-08-19T19:34:59.265Z,1.20
2017-08-19T19:37:26.832Z,1.50
2017-08-19T19:39:54.381Z,1.03
2017-08-19T19:42:21.958Z,12.13
2017-08-19T19:44:49.562Z,8.00
2017-08-19T19:47:17.869Z,5.60
2017-08-19T19:49:45.424Z,3.70
2017-08-19T19:52:12.958Z,1.70
2017-08-19T19:54:41.273Z,1.93
2017-08-19T19:57:08.809Z,2.10
2017-08-19T19:59:36.381Z,2.20
2017-08-19T20:02:03.941Z,2.00
2017-08-19T20:04:31.488Z,1.83
2017-08-19T20:06:59.040Z,1.70
2017-08-19T20:09:27.347Z,1.90
2017-08-19T20:11:55.099Z,2.43
2017-08-19T20:14:22.647Z,2.12
2017-08-19T20:16:50.189Z,2.17
2017-08-19T20:19:18.502Z,1.97
2017-08-19T20:21:46.069Z,2.17
2017-08-19T20:24:13.622Z,2.28
2017-08-19T20:26:41.152Z,2.20
2017-08-19T20:29:09.506Z,2.17
2017-08-19T20:31:37.046Z,1.95
2017-08-19T20:34:04.596Z,2.60
2017-08-19T20:36:32.127Z,1.75
2017-08-19T20:38:59.819Z,1.70
2017-08-19T20:41:27.390Z,1.80
2017-08-19T20:43:54.934Z,1.95
2017-08-19T20:46:22.492Z,2.25
2017-08-19T20:48:50.052Z,1.50
2017-08-19T20:51:17.591Z,2.30
2017-08-19T20:53:45.170Z,1.60
2017-08-19T20:56:12.728Z,1.70
2017-08-19T20:58:40.277Z,1.55
2017-08-19T21:01:07.837Z,2.85
2017-08-19T21:03:35.374Z,2.25
2017-08-19T21:06:03.676Z,1.70
2017-08-19T21:08:31.237Z,1.80
2017-08-19T21:10:58.764Z,2.05
2017-08-19T21:13:27.073Z,2.60
2017-08-19T21:15:54.605Z,2.37
2017-08-19T21:18:22.911Z,2.70
2017-08-19T21:20:50.470Z,2.37
2017-08-19T21:23:18.025Z,2.33
2017-08-19T21:25:45.586Z,1.92
2017-08-19T21:28:13.116Z,2.60
2017-08-19T21:30:41.428Z,2.45
2017-08-19T21:33:08.986Z,2.28
2017-08-19T21:35:36.573Z,2.40
2017-08-19T21:38:04.101Z,2.10
2017-08-19T21:40:31.641Z,2.15
2017-08-19T21:42:59.971Z,2.20
2017-08-19T21:45:27.516Z,2.55
2017-08-19T21:47:55.085Z,1.77
2017-08-19T21:50:22.657Z,2.30
2017-08-19T21:52:50.316Z,1.87
2017-08-19T21:55:17.870Z,2.10
2017-08-19T21:57:45.397Z,2.20
2017-08-19T22:00:12.953Z,2.75
2017-08-19T22:02:40.491Z,2.03
2017-08-19T22:05:08.056Z,2.53
2017-08-19T22:07:35.621Z,1.80
2017-08-19T22:10:03.917Z,2.12
2017-08-19T22:12:31.468Z,2.35
2017-08-19T22:14:59.773Z,2.05
2017-08-19T22:17:27.330Z,2.45
2017-08-19T22:19:54.881Z,2.72
2017-08-19T22:22:22.415Z,2.60
2017-08-19T22:24:50.733Z,2.10
2017-08-19T22:27:18.261Z,2.83
2017-08-19T22:29:46.587Z,2.55
2017-08-19T22:32:14.123Z,2.78
2017-08-19T22:34:41.657Z,3.20
2017-08-19T22:37:09.991Z,2.97
2017-08-19T22:39:37.530Z,3.03
2017-08-19T22:42:05.076Z,2.80
2017-08-19T22:44:32.617Z,2.45
2017-08-19T22:47:00.901Z,2.33
2017-08-19T22:49:28.458Z,1.98
2017-08-19T22:51:55.995Z,2.40
2017-08-19T22:54:24.324Z,2.53
2017-08-19T22:56:51.865Z,2.70
2017-08-19T22:59:19.449Z,2.37
2017-08-19T23:01:46.978Z,2.80
2017-08-19T23:04:14.514Z,2.62
2017-08-19T23:06:42.094Z,3.45
2017-08-19T23:09:09.634Z,2.20
2017-08-19T23:11:37.944Z,2.20
2017-08-19T23:14:06.386Z,2.50
2017-08-19T23:16:33.918Z,2.53
2017-08-19T23:19:01.482Z,2.50
2017-08-19T23:21:29.033Z,2.53
2017-08-19T23:23:56.558Z,2.45
2017-08-19T23:26:24.090Z,2.35
2017-08-19T23:28:52.401Z,2.10
2017-08-19T23:31:19.932Z,2.53
2017-08-19T23:33:47.489Z,2.05
2017-08-19T23:36:15.080Z,2.37
2017-08-19T23:38:42.642Z,2.28
2017-08-19T23:41:10.185Z,2.20
2017-08-19T23:43:37.736Z,2.83
2017-08-19T23:46:06.057Z,1.95
2017-08-19T23:48:33.610Z,2.20
2017-08-19T23:51:01.137Z,2.22
2017-08-19T23:53:28.674Z,2.10
2017-08-19T23:55:56.224Z,2.00
2017-08-19T23:58:23.765Z,2.12
